sensor_id;sensor_type;location;lat;lon;timestamp;temperature;humidity
3134;DHT22;1577;49.912;10.924;2023-02-28T00:00:05;-1.60;99.90
3134;DHT22;1577;49.912;10.924;2023-02-28T00:02:41;-1.70;99.90
3134;DHT22;1577;49.912;10.924;2023-02-28T00:05:09;-1.60;99.90
3134;DHT22;1577;49.912;10.924;2023-02-28T00:07:34;-1.70;99.90
3134;DHT22;1577;49.912;10.924;2023-02-28T00:10:00;-1.60;99.90
3134;DHT22;1577;49.912;10.924;2023-02-28T00:12:26;-1.60;99.90
3134;DHT22;1577;49.912;10.924;2023-02-28T00:14:52;-1.70;99.90
3134;DHT22;1577;49.912;10.924;2023-02-28T00:17:18;-1.70;99.90
3134;DHT22;1577;49.912;10.924;2023-02-28T00:27:08;-1.70;99.90
3134;DHT22;1577;49.912;10.924;2023-02-28T00:29:34;-1.70;99.90
3134;DHT22;1577;49.912;10.924;2023-02-28T00:32:00;-1.70;99.90
3134;DHT22;1577;49.912;10.924;2023-02-28T00:34:25;-1.70;99.90
3134;DHT22;1577;49.912;10.924;2023-02-28T00:36:51;-1.70;99.90
3134;DHT22;1577;49.912;10.924;2023-02-28T00:39:17;-1.70;99.90
3134;DHT22;1577;49.912;10.924;2023-02-28T00:41:42;-1.70;99.90
3134;DHT22;1577;49.912;10.924;2023-02-28T00:44:08;-1.80;99.90
3134;DHT22;1577;49.912;10.924;2023-02-28T00:46:33;-1.80;99.90
3134;DHT22;1577;49.912;10.924;2023-02-28T00:48:59;-1.80;99.90
3134;DHT22;1577;49.912;10.924;2023-02-28T00:51:24;-1.80;99.90
3134;DHT22;1577;49.912;10.924;2023-02-28T00:53:50;-1.80;99.90
3134;DHT22;1577;49.912;10.924;2023-02-28T00:56:16;-1.80;99.90
3134;DHT22;1577;49.912;10.924;2023-02-28T00:58:42;-1.80;99.90
3134;DHT22;1577;49.912;10.924;2023-02-28T01:01:08;-1.80;99.90
3134;DHT22;1577;49.912;10.924;2023-02-28T01:03:34;-1.80;99.90
3134;DHT22;1577;49.912;10.924;2023-02-28T01:05:59;-1.80;99.90
3134;DHT22;1577;49.912;10.924;2023-02-28T01:08:25;-1.80;99.90
3134;DHT22;1577;49.912;10.924;2023-02-28T01:10:51;-1.80;99.90
3134;DHT22;1577;49.912;10.924;2023-02-28T01:13:17;-1.80;99.90
3134;DHT22;1577;49.912;10.924;2023-02-28T01:15:49;-1.80;99.90
3134;DHT22;1577;49.912;10.924;2023-02-28T01:18:16;-1.90;99.90
3134;DHT22;1577;49.912;10.924;2023-02-28T01:20:42;-1.90;99.90
3134;DHT22;1577;49.912;10.924;2023-02-28T01:23:08;-1.90;99.90
3134;DHT22;1577;49.912;10.924;2023-02-28T01:25:35;-1.90;99.90
3134;DHT22;1577;49.912;10.924;2023-02-28T01:28:01;-1.90;99.90
3134;DHT22;1577;49.912;10.924;2023-02-28T01:30:26;-1.90;99.90
3134;DHT22;1577;49.912;10.924;2023-02-28T01:32:52;-1.90;99.90
3134;DHT22;1577;49.912;10.924;2023-02-28T01:35:19;-1.90;99.90
3134;DHT22;1577;49.912;10.924;2023-02-28T01:37:45;-2.00;99.90
3134;DHT22;1577;49.912;10.924;2023-02-28T01:40:11;-2.00;99.90
3134;DHT22;1577;49.912;10.924;2023-02-28T01:42:37;-2.00;99.90
3134;DHT22;1577;49.912;10.924;2023-02-28T01:45:45;-2.00;99.90
3134;DHT22;1577;49.912;10.924;2023-02-28T01:47:55;-2.00;99.90
3134;DHT22;1577;49.912;10.924;2023-02-28T01:50:27;-2.10;99.90
3134;DHT22;1577;49.912;10.924;2023-02-28T01:52:56;-2.10;99.90
3134;DHT22;1577;49.912;10.924;2023-02-28T01:55:23;-2.10;99.90
3134;DHT22;1577;49.912;10.924;2023-02-28T01:57:56;-2.10;99.90
3134;DHT22;1577;49.912;10.924;2023-02-28T02:00:24;-2.10;99.90
3134;DHT22;1577;49.912;10.924;2023-02-28T02:02:58;-2.10;99.90
3134;DHT22;1577;49.912;10.924;2023-02-28T02:05:27;-2.10;99.90
3134;DHT22;1577;49.912;10.924;2023-02-28T02:07:57;-2.10;99.90
3134;DHT22;1577;49.912;10.924;2023-02-28T02:10:43;-2.10;99.90
3134;DHT22;1577;49.912;10.924;2023-02-28T02:19:24;-2.00;99.90
3134;DHT22;1577;49.912;10.924;2023-02-28T02:22:03;-2.00;99.90
3134;DHT22;1577;49.912;10.924;2023-02-28T02:30:35;-2.00;99.90
3134;DHT22;1577;49.912;10.924;2023-02-28T02:35:53;-2.00;99.90
3134;DHT22;1577;49.912;10.924;2023-02-28T02:46:38;-2.20;99.90
3134;DHT22;1577;49.912;10.924;2023-02-28T02:49:08;-2.20;99.90
3134;DHT22;1577;49.912;10.924;2023-02-28T02:51:36;-2.30;99.90
3134;DHT22;1577;49.912;10.924;2023-02-28T02:54:08;-2.30;99.90
3134;DHT22;1577;49.912;10.924;2023-02-28T02:56:39;-2.30;99.90
3134;DHT22;1577;49.912;10.924;2023-02-28T02:59:09;-2.20;99.90
3134;DHT22;1577;49.912;10.924;2023-02-28T03:01:38;-2.20;99.90
3134;DHT22;1577;49.912;10.924;2023-02-28T03:04:10;-2.20;99.90
3134;DHT22;1577;49.912;10.924;2023-02-28T03:06:37;-2.20;99.90
3134;DHT22;1577;49.912;10.924;2023-02-28T03:09:03;-2.10;99.90
3134;DHT22;1577;49.912;10.924;2023-02-28T03:11:34;-2.10;99.90
3134;DHT22;1577;49.912;10.924;2023-02-28T03:22:18;-1.90;99.90
3134;DHT22;1577;49.912;10.924;2023-02-28T03:25:08;-1.90;99.90
3134;DHT22;1577;49.912;10.924;2023-02-28T03:35:23;-1.90;99.90
3134;DHT22;1577;49.912;10.924;2023-02-28T03:37:53;-1.90;99.90
3134;DHT22;1577;49.912;10.924;2023-02-28T03:40:23;-1.80;99.90
3134;DHT22;1577;49.912;10.924;2023-02-28T03:42:56;-1.80;99.90
3134;DHT22;1577;49.912;10.924;2023-02-28T03:45:28;-1.80;99.90
3134;DHT22;1577;49.912;10.924;2023-02-28T03:50:39;-1.80;99.90
3134;DHT22;1577;49.912;10.924;2023-02-28T03:53:19;-1.80;99.90
3134;DHT22;1577;49.912;10.924;2023-02-28T03:55:54;-1.80;99.90
3134;DHT22;1577;49.912;10.924;2023-02-28T03:58:46;-1.80;99.90
3134;DHT22;1577;49.912;10.924;2023-02-28T04:01:21;-1.80;99.90
3134;DHT22;1577;49.912;10.924;2023-02-28T04:03:49;-1.80;99.90
3134;DHT22;1577;49.912;10.924;2023-02-28T04:06:20;-1.80;99.90
3134;DHT22;1577;49.912;10.924;2023-02-28T04:08:47;-1.80;99.90
3134;DHT22;1577;49.912;10.924;2023-02-28T04:11:36;-1.80;99.90
3134;DHT22;1577;49.912;10.924;2023-02-28T04:14:04;-1.80;99.90
3134;DHT22;1577;49.912;10.924;2023-02-28T04:16:31;-1.80;99.90
3134;DHT22;1577;49.912;10.924;2023-02-28T04:18:57;-1.80;99.90
3134;DHT22;1577;49.912;10.924;2023-02-28T04:21:40;-1.80;99.90
3134;DHT22;1577;49.912;10.924;2023-02-28T04:24:13;-1.80;99.90
3134;DHT22;1577;49.912;10.924;2023-02-28T04:26:44;-1.90;99.90
3134;DHT22;1577;49.912;10.924;2023-02-28T04:29:12;-1.90;99.90
3134;DHT22;1577;49.912;10.924;2023-02-28T04:31:38;-1.90;99.90
3134;DHT22;1577;49.912;10.924;2023-02-28T04:34:04;-1.90;99.90
3134;DHT22;1577;49.912;10.924;2023-02-28T04:36:30;-1.90;99.90
3134;DHT22;1577;49.912;10.924;2023-02-28T04:38:56;-1.90;99.90
3134;DHT22;1577;49.912;10.924;2023-02-28T04:41:22;-1.90;99.90
3134;DHT22;1577;49.912;10.924;2023-02-28T04:43:48;-1.90;99.90
3134;DHT22;1577;49.912;10.924;2023-02-28T04:46:13;-2.00;99.90
3134;DHT22;1577;49.912;10.924;2023-02-28T04:48:39;-1.90;99.90
3134;DHT22;1577;49.912;10.924;2023-02-28T04:51:09;-2.00;99.90
3134;DHT22;1577;49.912;10.924;2023-02-28T04:53:36;-2.00;99.90
3134;DHT22;1577;49.912;10.924;2023-02-28T04:56:03;-2.00;99.90
3134;DHT22;1577;49.912;10.924;2023-02-28T04:58:29;-1.90;99.90
3134;DHT22;1577;49.912;10.924;2023-02-28T05:01:02;-2.00;99.90
3134;DHT22;1577;49.912;10.924;2023-02-28T05:03:28;-1.90;99.90
3134;DHT22;1577;49.912;10.924;2023-02-28T05:05:53;-2.00;99.90
3134;DHT22;1577;49.912;10.924;2023-02-28T05:08:19;-2.00;99.90
3134;DHT22;1577;49.912;10.924;2023-02-28T05:10:45;-1.90;99.90
3134;DHT22;1577;49.912;10.924;2023-02-28T05:13:13;-1.90;99.90
3134;DHT22;1577;49.912;10.924;2023-02-28T05:15:39;-1.90;99.90
3134;DHT22;1577;49.912;10.924;2023-02-28T05:18:05;-1.90;99.90
3134;DHT22;1577;49.912;10.924;2023-02-28T05:20:30;-1.90;99.90
3134;DHT22;1577;49.912;10.924;2023-02-28T05:22:57;-1.90;99.90
3134;DHT22;1577;49.912;10.924;2023-02-28T05:25:24;-1.90;99.90
3134;DHT22;1577;49.912;10.924;2023-02-28T05:27:50;-1.90;99.90
3134;DHT22;1577;49.912;10.924;2023-02-28T05:30:16;-1.90;99.90
3134;DHT22;1577;49.912;10.924;2023-02-28T05:32:42;-1.90;99.90
3134;DHT22;1577;49.912;10.924;2023-02-28T05:35:11;-1.90;99.90
3134;DHT22;1577;49.912;10.924;2023-02-28T05:37:38;-2.00;99.90
3134;DHT22;1577;49.912;10.924;2023-02-28T05:40:05;-2.00;99.90
3134;DHT22;1577;49.912;10.924;2023-02-28T05:42:40;-2.00;99.90
3134;DHT22;1577;49.912;10.924;2023-02-28T05:45:07;-1.90;99.90
3134;DHT22;1577;49.912;10.924;2023-02-28T05:47:33;-2.00;99.90
3134;DHT22;1577;49.912;10.924;2023-02-28T05:49:59;-1.90;99.90
3134;DHT22;1577;49.912;10.924;2023-02-28T05:52:26;-1.90;99.90
3134;DHT22;1577;49.912;10.924;2023-02-28T05:54:52;-1.90;99.90
3134;DHT22;1577;49.912;10.924;2023-02-28T05:57:17;-1.90;99.90
3134;DHT22;1577;49.912;10.924;2023-02-28T05:59:43;-1.90;99.90
3134;DHT22;1577;49.912;10.924;2023-02-28T06:02:12;-1.90;99.90
3134;DHT22;1577;49.912;10.924;2023-02-28T06:04:38;-1.90;99.90
3134;DHT22;1577;49.912;10.924;2023-02-28T06:07:06;-1.80;99.90
3134;DHT22;1577;49.912;10.924;2023-02-28T06:09:31;-1.80;99.90
3134;DHT22;1577;49.912;10.924;2023-02-28T06:11:58;-1.80;99.90
3134;DHT22;1577;49.912;10.924;2023-02-28T06:14:24;-1.80;99.90
3134;DHT22;1577;49.912;10.924;2023-02-28T06:16:51;-1.70;99.90
3134;DHT22;1577;49.912;10.924;2023-02-28T06:19:19;-1.70;99.90
3134;DHT22;1577;49.912;10.924;2023-02-28T06:21:45;-1.60;99.90
3134;DHT22;1577;49.912;10.924;2023-02-28T06:24:13;-1.60;99.90
3134;DHT22;1577;49.912;10.924;2023-02-28T06:26:39;-1.60;99.90
3134;DHT22;1577;49.912;10.924;2023-02-28T06:29:05;-1.60;99.90
3134;DHT22;1577;49.912;10.924;2023-02-28T06:31:30;-1.50;99.90
3134;DHT22;1577;49.912;10.924;2023-02-28T06:33:56;-1.50;99.90
3134;DHT22;1577;49.912;10.924;2023-02-28T06:36:22;-1.50;99.90
3134;DHT22;1577;49.912;10.924;2023-02-28T06:38:47;-1.40;99.90
3134;DHT22;1577;49.912;10.924;2023-02-28T06:41:21;-1.40;99.90
3134;DHT22;1577;49.912;10.924;2023-02-28T06:43:47;-1.30;99.90
3134;DHT22;1577;49.912;10.924;2023-02-28T06:46:13;-1.30;99.90
3134;DHT22;1577;49.912;10.924;2023-02-28T06:48:43;-1.10;99.90
3134;DHT22;1577;49.912;10.924;2023-02-28T06:51:12;-0.90;99.90
3134;DHT22;1577;49.912;10.924;2023-02-28T06:53:39;-0.60;99.90
3134;DHT22;1577;49.912;10.924;2023-02-28T06:56:06;-0.40;99.90
3134;DHT22;1577;49.912;10.924;2023-02-28T06:58:32;-0.20;99.90
3134;DHT22;1577;49.912;10.924;2023-02-28T07:00:58;0.10;99.90
3134;DHT22;1577;49.912;10.924;2023-02-28T07:03:24;0.20;99.90
3134;DHT22;1577;49.912;10.924;2023-02-28T07:05:49;0.40;99.90
3134;DHT22;1577;49.912;10.924;2023-02-28T07:08:16;0.40;99.90
3134;DHT22;1577;49.912;10.924;2023-02-28T07:10:41;0.20;99.90
3134;DHT22;1577;49.912;10.924;2023-02-28T07:13:08;0.20;99.90
3134;DHT22;1577;49.912;10.924;2023-02-28T07:15:35;0.10;99.90
3134;DHT22;1577;49.912;10.924;2023-02-28T07:18:01;0.10;99.90
3134;DHT22;1577;49.912;10.924;2023-02-28T07:20:26;0.20;99.90
3134;DHT22;1577;49.912;10.924;2023-02-28T07:22:52;0.30;99.90
3134;DHT22;1577;49.912;10.924;2023-02-28T07:25:27;0.50;99.90
3134;DHT22;1577;49.912;10.924;2023-02-28T07:27:54;0.70;99.90
3134;DHT22;1577;49.912;10.924;2023-02-28T07:30:20;1.00;99.90
3134;DHT22;1577;49.912;10.924;2023-02-28T07:32:46;1.30;99.90
3134;DHT22;1577;49.912;10.924;2023-02-28T07:35:12;1.80;99.90
3134;DHT22;1577;49.912;10.924;2023-02-28T07:37:45;2.20;99.90
3134;DHT22;1577;49.912;10.924;2023-02-28T07:40:14;2.70;99.90
3134;DHT22;1577;49.912;10.924;2023-02-28T07:42:41;3.20;99.90
3134;DHT22;1577;49.912;10.924;2023-02-28T07:45:08;3.40;99.90
3134;DHT22;1577;49.912;10.924;2023-02-28T07:47:34;3.60;99.90
3134;DHT22;1577;49.912;10.924;2023-02-28T07:49:59;3.70;99.90
3134;DHT22;1577;49.912;10.924;2023-02-28T07:52:25;3.60;99.90
3134;DHT22;1577;49.912;10.924;2023-02-28T07:54:51;3.50;99.90
3134;DHT22;1577;49.912;10.924;2023-02-28T07:57:17;3.40;99.90
3134;DHT22;1577;49.912;10.924;2023-02-28T07:59:43;3.50;99.90
3134;DHT22;1577;49.912;10.924;2023-02-28T08:02:18;3.70;99.90
3134;DHT22;1577;49.912;10.924;2023-02-28T08:04:44;3.80;99.90
3134;DHT22;1577;49.912;10.924;2023-02-28T08:07:12;3.80;99.90
3134;DHT22;1577;49.912;10.924;2023-02-28T08:09:41;3.80;99.90
3134;DHT22;1577;49.912;10.924;2023-02-28T08:12:08;3.90;99.90
3134;DHT22;1577;49.912;10.924;2023-02-28T08:14:35;4.10;99.80
3134;DHT22;1577;49.912;10.924;2023-02-28T08:17:01;4.10;99.60
3134;DHT22;1577;49.912;10.924;2023-02-28T08:19:26;4.30;99.00
3134;DHT22;1577;49.912;10.924;2023-02-28T08:21:52;4.40;99.60
3134;DHT22;1577;49.912;10.924;2023-02-28T08:24:18;4.40;98.70
3134;DHT22;1577;49.912;10.924;2023-02-28T08:26:44;4.50;99.00
3134;DHT22;1577;49.912;10.924;2023-02-28T08:29:09;4.50;98.40
3134;DHT22;1577;49.912;10.924;2023-02-28T08:31:35;4.40;98.40
3134;DHT22;1577;49.912;10.924;2023-02-28T08:34:06;4.30;98.80
3134;DHT22;1577;49.912;10.924;2023-02-28T08:36:32;4.20;98.60
3134;DHT22;1577;49.912;10.924;2023-02-28T08:38:57;4.20;99.10
3134;DHT22;1577;49.912;10.924;2023-02-28T08:41:23;4.30;98.60
3134;DHT22;1577;49.912;10.924;2023-02-28T08:43:49;4.30;98.60
3134;DHT22;1577;49.912;10.924;2023-02-28T08:46:15;4.60;99.00
3134;DHT22;1577;49.912;10.924;2023-02-28T08:48:40;4.60;97.90
3134;DHT22;1577;49.912;10.924;2023-02-28T08:51:09;4.60;98.40
3134;DHT22;1577;49.912;10.924;2023-02-28T08:53:39;4.80;98.10
3134;DHT22;1577;49.912;10.924;2023-02-28T08:56:07;5.00;98.00
3134;DHT22;1577;49.912;10.924;2023-02-28T08:58:34;4.80;97.30
3134;DHT22;1577;49.912;10.924;2023-02-28T09:00:59;4.50;97.00
3134;DHT22;1577;49.912;10.924;2023-02-28T09:03:26;4.30;97.50
3134;DHT22;1577;49.912;10.924;2023-02-28T09:05:57;4.20;97.50
3134;DHT22;1577;49.912;10.924;2023-02-28T09:08:25;4.00;97.50
3134;DHT22;1577;49.912;10.924;2023-02-28T09:10:52;3.70;97.40
3134;DHT22;1577;49.912;10.924;2023-02-28T09:13:18;3.30;97.80
3134;DHT22;1577;49.912;10.924;2023-02-28T09:15:44;3.20;98.00
3134;DHT22;1577;49.912;10.924;2023-02-28T09:18:09;3.20;98.30
3134;DHT22;1577;49.912;10.924;2023-02-28T09:20:38;3.20;98.60
3134;DHT22;1577;49.912;10.924;2023-02-28T09:23:05;3.20;98.20
3134;DHT22;1577;49.912;10.924;2023-02-28T09:25:31;3.20;98.70
3134;DHT22;1577;49.912;10.924;2023-02-28T09:27:56;3.20;98.70
3134;DHT22;1577;49.912;10.924;2023-02-28T09:30:22;3.20;98.20
3134;DHT22;1577;49.912;10.924;2023-02-28T09:32:47;3.30;98.00
3134;DHT22;1577;49.912;10.924;2023-02-28T09:35:18;3.20;98.40
3134;DHT22;1577;49.912;10.924;2023-02-28T09:37:44;3.20;97.80
3134;DHT22;1577;49.912;10.924;2023-02-28T09:40:11;3.10;97.60
3134;DHT22;1577;49.912;10.924;2023-02-28T09:42:37;3.00;97.80
3134;DHT22;1577;49.912;10.924;2023-02-28T09:45:11;2.90;97.80
3134;DHT22;1577;49.912;10.924;2023-02-28T09:47:42;2.90;97.90
3134;DHT22;1577;49.912;10.924;2023-02-28T09:50:46;3.00;98.20
3134;DHT22;1577;49.912;10.924;2023-02-28T09:53:27;3.10;98.10
3134;DHT22;1577;49.912;10.924;2023-02-28T09:56:20;3.10;97.60
3134;DHT22;1577;49.912;10.924;2023-02-28T10:01:57;3.20;98.10
3134;DHT22;1577;49.912;10.924;2023-02-28T10:04:44;3.30;97.80
3134;DHT22;1577;49.912;10.924;2023-02-28T10:10:21;3.20;97.30
3134;DHT22;1577;49.912;10.924;2023-02-28T10:12:48;3.20;97.40
3134;DHT22;1577;49.912;10.924;2023-02-28T10:15:16;3.10;97.20
3134;DHT22;1577;49.912;10.924;2023-02-28T10:17:44;3.10;97.50
3134;DHT22;1577;49.912;10.924;2023-02-28T10:20:17;3.00;97.50
3134;DHT22;1577;49.912;10.924;2023-02-28T10:25:34;3.00;97.60
3134;DHT22;1577;49.912;10.924;2023-02-28T10:28:12;3.00;97.80
3134;DHT22;1577;49.912;10.924;2023-02-28T10:30:46;3.00;97.70
3134;DHT22;1577;49.912;10.924;2023-02-28T10:33:32;3.00;97.90
3134;DHT22;1577;49.912;10.924;2023-02-28T10:36:00;3.10;98.10
3134;DHT22;1577;49.912;10.924;2023-02-28T10:38:33;3.30;97.90
3134;DHT22;1577;49.912;10.924;2023-02-28T10:41:13;3.30;97.40
3134;DHT22;1577;49.912;10.924;2023-02-28T10:43:40;3.40;97.80
3134;DHT22;1577;49.912;10.924;2023-02-28T10:51:12;3.60;97.30
3134;DHT22;1577;49.912;10.924;2023-02-28T10:53:52;3.70;97.00
3134;DHT22;1577;49.912;10.924;2023-02-28T10:56:24;3.70;96.20
3134;DHT22;1577;49.912;10.924;2023-02-28T11:03:57;3.60;96.00
3134;DHT22;1577;49.912;10.924;2023-02-28T11:06:33;3.60;95.90
3134;DHT22;1577;49.912;10.924;2023-02-28T11:09:02;3.60;96.00
3134;DHT22;1577;49.912;10.924;2023-02-28T11:11:31;3.60;95.80
3134;DHT22;1577;49.912;10.924;2023-02-28T11:14:24;3.50;95.80
3134;DHT22;1577;49.912;10.924;2023-02-28T11:16:51;3.40;96.00
3134;DHT22;1577;49.912;10.924;2023-02-28T11:19:25;3.40;96.20
3134;DHT22;1577;49.912;10.924;2023-02-28T11:21:58;3.40;96.20
3134;DHT22;1577;49.912;10.924;2023-02-28T11:24:31;3.40;96.00
3134;DHT22;1577;49.912;10.924;2023-02-28T11:26:58;3.40;96.10
3134;DHT22;1577;49.912;10.924;2023-02-28T11:29:32;3.50;96.40
3134;DHT22;1577;49.912;10.924;2023-02-28T11:32:20;3.50;96.40
3134;DHT22;1577;49.912;10.924;2023-02-28T11:34:47;3.70;96.00
3134;DHT22;1577;49.912;10.924;2023-02-28T11:37:25;3.70;96.20
3134;DHT22;1577;49.912;10.924;2023-02-28T11:39:52;3.70;95.60
3134;DHT22;1577;49.912;10.924;2023-02-28T11:42:54;3.70;95.90
3134;DHT22;1577;49.912;10.924;2023-02-28T11:53:40;3.80;95.70
3134;DHT22;1577;49.912;10.924;2023-02-28T11:56:47;3.90;95.60
3134;DHT22;1577;49.912;10.924;2023-02-28T11:59:42;4.10;95.60
3134;DHT22;1577;49.912;10.924;2023-02-28T12:02:28;4.20;95.30
3134;DHT22;1577;49.912;10.924;2023-02-28T12:07:50;4.20;95.50
3134;DHT22;1577;49.912;10.924;2023-02-28T12:10:33;4.30;95.30
3134;DHT22;1577;49.912;10.924;2023-02-28T12:13:31;4.30;95.50
3134;DHT22;1577;49.912;10.924;2023-02-28T12:16:11;4.40;95.30
3134;DHT22;1577;49.912;10.924;2023-02-28T12:27:00;4.10;95.40
3134;DHT22;1577;49.912;10.924;2023-02-28T12:29:34;4.10;95.50
3134;DHT22;1577;49.912;10.924;2023-02-28T12:32:06;4.10;95.50
3134;DHT22;1577;49.912;10.924;2023-02-28T12:34:44;4.10;95.00
3134;DHT22;1577;49.912;10.924;2023-02-28T12:37:16;3.90;95.10
3134;DHT22;1577;49.912;10.924;2023-02-28T12:39:48;3.80;95.20
3134;DHT22;1577;49.912;10.924;2023-02-28T12:42:34;3.80;95.40
3134;DHT22;1577;49.912;10.924;2023-02-28T12:45:07;3.80;95.50
3134;DHT22;1577;49.912;10.924;2023-02-28T12:47:36;3.70;95.50
3134;DHT22;1577;49.912;10.924;2023-02-28T12:50:06;3.80;95.80
3134;DHT22;1577;49.912;10.924;2023-02-28T12:55:50;3.70;95.50
3134;DHT22;1577;49.912;10.924;2023-02-28T12:58:34;3.80;95.80
3134;DHT22;1577;49.912;10.924;2023-02-28T13:09:58;4.10;95.30
3134;DHT22;1577;49.912;10.924;2023-02-28T13:12:25;4.00;95.30
3134;DHT22;1577;49.912;10.924;2023-02-28T13:15:08;4.10;95.50
3134;DHT22;1577;49.912;10.924;2023-02-28T13:17:39;4.10;95.60
3134;DHT22;1577;49.912;10.924;2023-02-28T13:20:18;4.20;95.30
3134;DHT22;1577;49.912;10.924;2023-02-28T13:22:47;4.20;95.70
3134;DHT22;1577;49.912;10.924;2023-02-28T13:27:54;4.20;95.40
3134;DHT22;1577;49.912;10.924;2023-02-28T13:38:53;4.30;95.70
3134;DHT22;1577;49.912;10.924;2023-02-28T13:44:13;4.40;95.10
3134;DHT22;1577;49.912;10.924;2023-02-28T14:00:23;4.40;95.40
3134;DHT22;1577;49.912;10.924;2023-02-28T14:05:33;4.40;95.40
3134;DHT22;1577;49.912;10.924;2023-02-28T14:08:04;4.50;95.60
3134;DHT22;1577;49.912;10.924;2023-02-28T14:10:37;4.50;95.00
3134;DHT22;1577;49.912;10.924;2023-02-28T14:13:36;4.50;95.20
3134;DHT22;1577;49.912;10.924;2023-02-28T14:16:06;4.50;95.30
3134;DHT22;1577;49.912;10.924;2023-02-28T14:18:36;4.60;95.40
3134;DHT22;1577;49.912;10.924;2023-02-28T14:21:11;4.60;95.30
3134;DHT22;1577;49.912;10.924;2023-02-28T14:32:10;4.60;95.20
3134;DHT22;1577;49.912;10.924;2023-02-28T14:34:42;4.60;95.10
3134;DHT22;1577;49.912;10.924;2023-02-28T14:37:15;4.60;95.10
3134;DHT22;1577;49.912;10.924;2023-02-28T14:39:42;4.60;95.10
3134;DHT22;1577;49.912;10.924;2023-02-28T14:42:33;4.60;95.20
3134;DHT22;1577;49.912;10.924;2023-02-28T14:45:01;4.70;95.20
3134;DHT22;1577;49.912;10.924;2023-02-28T14:47:36;4.70;95.30
3134;DHT22;1577;49.912;10.924;2023-02-28T14:50:03;4.70;94.90
3134;DHT22;1577;49.912;10.924;2023-02-28T14:52:31;4.70;95.00
3134;DHT22;1577;49.912;10.924;2023-02-28T14:55:22;4.70;94.80
3134;DHT22;1577;49.912;10.924;2023-02-28T15:00:29;4.90;94.80
3134;DHT22;1577;49.912;10.924;2023-02-28T15:02:57;4.90;94.50
3134;DHT22;1577;49.912;10.924;2023-02-28T15:05:29;4.90;94.50
3134;DHT22;1577;49.912;10.924;2023-02-28T15:08:14;4.90;94.40
3134;DHT22;1577;49.912;10.924;2023-02-28T15:10:45;4.80;94.50
3134;DHT22;1577;49.912;10.924;2023-02-28T15:13:16;4.70;94.50
3134;DHT22;1577;49.912;10.924;2023-02-28T15:20:50;4.70;94.50
3134;DHT22;1577;49.912;10.924;2023-02-28T15:23:16;4.70;94.60
3134;DHT22;1577;49.912;10.924;2023-02-28T15:25:43;4.70;94.30
3134;DHT22;1577;49.912;10.924;2023-02-28T15:28:18;4.60;94.40
3134;DHT22;1577;49.912;10.924;2023-02-28T15:31:00;4.60;94.40
3134;DHT22;1577;49.912;10.924;2023-02-28T15:33:33;4.60;94.30
3134;DHT22;1577;49.912;10.924;2023-02-28T15:36:26;4.60;94.50
3134;DHT22;1577;49.912;10.924;2023-02-28T15:38:53;4.60;94.20
3134;DHT22;1577;49.912;10.924;2023-02-28T15:41:28;4.60;94.40
3134;DHT22;1577;49.912;10.924;2023-02-28T15:47:16;4.60;94.40
3134;DHT22;1577;49.912;10.924;2023-02-28T15:49:49;4.50;94.20
3134;DHT22;1577;49.912;10.924;2023-02-28T15:52:27;4.50;94.40
3134;DHT22;1577;49.912;10.924;2023-02-28T15:54:53;4.50;94.40
3134;DHT22;1577;49.912;10.924;2023-02-28T15:57:22;4.50;94.40
3134;DHT22;1577;49.912;10.924;2023-02-28T15:59:52;4.50;94.50
3134;DHT22;1577;49.912;10.924;2023-02-28T16:02:22;4.40;94.30
3134;DHT22;1577;49.912;10.924;2023-02-28T16:04:59;4.40;94.40
3134;DHT22;1577;49.912;10.924;2023-02-28T16:07:25;4.40;94.50
3134;DHT22;1577;49.912;10.924;2023-02-28T16:09:51;4.40;94.50
3134;DHT22;1577;49.912;10.924;2023-02-28T16:12:18;4.30;94.40
3134;DHT22;1577;49.912;10.924;2023-02-28T16:14:51;4.30;94.40
3134;DHT22;1577;49.912;10.924;2023-02-28T16:17:23;4.30;94.40
3134;DHT22;1577;49.912;10.924;2023-02-28T16:19:49;4.20;94.30
3134;DHT22;1577;49.912;10.924;2023-02-28T16:22:15;4.20;94.20
3134;DHT22;1577;49.912;10.924;2023-02-28T16:24:41;4.20;94.40
3134;DHT22;1577;49.912;10.924;2023-02-28T16:27:17;4.10;94.50
3134;DHT22;1577;49.912;10.924;2023-02-28T16:29:43;4.10;94.60
3134;DHT22;1577;49.912;10.924;2023-02-28T16:32:11;4.00;94.60
3134;DHT22;1577;49.912;10.924;2023-02-28T16:34:37;4.00;94.70
3134;DHT22;1577;49.912;10.924;2023-02-28T16:37:09;3.90;94.80
3134;DHT22;1577;49.912;10.924;2023-02-28T16:39:36;3.80;94.70
3134;DHT22;1577;49.912;10.924;2023-02-28T16:42:01;3.80;95.00
3134;DHT22;1577;49.912;10.924;2023-02-28T16:44:34;3.70;94.90
3134;DHT22;1577;49.912;10.924;2023-02-28T16:47:01;3.70;95.00
3134;DHT22;1577;49.912;10.924;2023-02-28T16:49:27;3.60;95.10
3134;DHT22;1577;49.912;10.924;2023-02-28T16:51:53;3.50;95.20
3134;DHT22;1577;49.912;10.924;2023-02-28T16:54:19;3.50;95.20
3134;DHT22;1577;49.912;10.924;2023-02-28T16:56:46;3.50;95.20
3134;DHT22;1577;49.912;10.924;2023-02-28T16:59:12;3.40;95.40
3134;DHT22;1577;49.912;10.924;2023-02-28T17:01:39;3.40;95.50
3134;DHT22;1577;49.912;10.924;2023-02-28T17:04:04;3.40;95.40
3134;DHT22;1577;49.912;10.924;2023-02-28T17:06:30;3.30;95.50
3134;DHT22;1577;49.912;10.924;2023-02-28T17:08:57;3.30;95.60
3134;DHT22;1577;49.912;10.924;2023-02-28T17:11:24;3.30;95.70
3134;DHT22;1577;49.912;10.924;2023-02-28T17:13:50;3.20;95.90
3134;DHT22;1577;49.912;10.924;2023-02-28T17:16:33;3.20;95.90
3134;DHT22;1577;49.912;10.924;2023-02-28T17:19:02;3.20;96.30
3134;DHT22;1577;49.912;10.924;2023-02-28T17:21:29;3.10;96.20
3134;DHT22;1577;49.912;10.924;2023-02-28T17:23:55;3.10;96.20
3134;DHT22;1577;49.912;10.924;2023-02-28T17:26:24;3.00;96.20
3134;DHT22;1577;49.912;10.924;2023-02-28T17:28:51;3.00;96.40
3134;DHT22;1577;49.912;10.924;2023-02-28T17:31:17;3.00;96.50
3134;DHT22;1577;49.912;10.924;2023-02-28T17:33:43;2.90;96.50
3134;DHT22;1577;49.912;10.924;2023-02-28T17:36:13;2.90;96.60
3134;DHT22;1577;49.912;10.924;2023-02-28T17:38:40;2.80;96.80
3134;DHT22;1577;49.912;10.924;2023-02-28T17:41:06;2.80;96.90
3134;DHT22;1577;49.912;10.924;2023-02-28T17:43:31;2.80;96.90
3134;DHT22;1577;49.912;10.924;2023-02-28T17:45:57;2.70;96.80
3134;DHT22;1577;49.912;10.924;2023-02-28T17:48:24;2.70;96.90
3134;DHT22;1577;49.912;10.924;2023-02-28T17:50:49;2.70;97.00
3134;DHT22;1577;49.912;10.924;2023-02-28T17:53:15;2.60;97.10
3134;DHT22;1577;49.912;10.924;2023-02-28T17:55:41;2.60;97.30
3134;DHT22;1577;49.912;10.924;2023-02-28T17:58:09;2.60;97.20
3134;DHT22;1577;49.912;10.924;2023-02-28T18:00:35;2.50;97.30
3134;DHT22;1577;49.912;10.924;2023-02-28T18:03:01;2.50;97.40
3134;DHT22;1577;49.912;10.924;2023-02-28T18:05:27;2.50;97.70
3134;DHT22;1577;49.912;10.924;2023-02-28T18:07:52;2.40;97.90
3134;DHT22;1577;49.912;10.924;2023-02-28T18:10:21;2.40;98.00
3134;DHT22;1577;49.912;10.924;2023-02-28T18:12:47;2.30;98.30
3134;DHT22;1577;49.912;10.924;2023-02-28T18:15:14;2.30;98.50
3134;DHT22;1577;49.912;10.924;2023-02-28T18:17:40;2.20;98.60
3134;DHT22;1577;49.912;10.924;2023-02-28T18:20:06;2.10;98.70
3134;DHT22;1577;49.912;10.924;2023-02-28T18:22:32;2.10;98.90
3134;DHT22;1577;49.912;10.924;2023-02-28T18:24:59;2.00;99.00
3134;DHT22;1577;49.912;10.924;2023-02-28T18:27:24;1.90;99.30
3134;DHT22;1577;49.912;10.924;2023-02-28T18:29:50;1.90;99.30
3134;DHT22;1577;49.912;10.924;2023-02-28T18:32:16;1.80;99.50
3134;DHT22;1577;49.912;10.924;2023-02-28T18:34:42;1.80;99.60
3134;DHT22;1577;49.912;10.924;2023-02-28T18:37:08;1.70;99.80
3134;DHT22;1577;49.912;10.924;2023-02-28T18:39:36;1.60;99.90